Flight Track Log - Related Links

Times and Time Zones

All times are in EST time to prevent confusion due to time zone crossing. See the SQH50 flight status page for this flight to view local times or setup timezone preferences in your user account.

Time Position Orientation Groundspeed Altitude Reporting Facility
EST Latitude Longitude Course Direction KTS MPH feet Rate Location/Type
Fri 02:17:58 PM 32.8647 -96.8611 336° Northwest 96 110 1,000  Level FAA TRACON SMA TRACON (SMA)
Fri 02:18:37 PM 32.8858 -96.8722 334° Northwest 138 159 1,700 1,275 Climbing FAA TRACON SMA TRACON (SMA)
Fri 02:19:18 PM 32.9108 -96.8867 39° Northeast 147 169 2,700 1,333 Climbing FAA TRACON SMA TRACON (SMA)
Fri 02:19:58 PM 32.9300 -96.8683 48° Northeast 133 153 3,500 911 Climbing FAA TRACON SMA TRACON (SMA)
Fri 02:20:37 PM 32.9464 -96.8467 54° Northeast 144 166 3,900 600 Climbing FAA TRACON SMA TRACON (SMA)
Fri 02:21:18 PM 32.9647 -96.8167 90° East 165 190 4,300 600 Climbing FAA TRACON SMA TRACON (SMA)
Fri 02:21:57 PM 32.9647 -96.7775 105° East 177 204 4,700 600 Climbing FAA TRACON SMA TRACON (SMA)
Fri 02:22:38 PM 32.9567 -96.7417 105° East 183 211 5,100 643 Climbing FAA TRACON SMA TRACON (SMA)
Fri 02:23:21 PM 32.9464 -96.6950 105° East 191 220 5,600 608 Climbing FAA TRACON SMA TRACON (SMA)
Fri 02:23:57 PM 32.9378 -96.6558 104° East 199 229 5,900 468 Climbing FAA TRACON SMA TRACON (SMA)
Fri 02:24:38 PM 32.9292 -96.6158 104° East 203 234 6,200 519 Climbing FAA TRACON SMA TRACON (SMA)
Fri 02:25:18 PM 32.9200 -96.5706 104° East 205 236 6,600 532 Climbing FAA TRACON SMA TRACON (SMA)
Fri 02:25:57 PM 32.9103 -96.5247 104° East 207 238 6,900 456 Climbing FAA TRACON SMA TRACON (SMA)
Fri 02:26:37 PM 32.9014 -96.4833 104° East 209 241 7,200 450 Climbing FAA TRACON SMA TRACON (SMA)
Fri 02:27:17 PM 32.8917 -96.4372 104° East 210 242 7,500 519 Climbing FAA TRACON SMA TRACON (SMA)
Fri 02:27:58 PM 32.8822 -96.3906 105° East 209 241 7,900 525 Climbing FAA TRACON SMA TRACON (SMA)
Fri 02:28:37 PM 32.8731 -96.3492 86° East 209 241 8,200 444 Climbing FAA TRACON SMA TRACON (SMA)
Fri 02:29:19 PM 32.8758 -96.3019 80° East 209 241 8,500 434 Climbing FAA TRACON SMA TRACON (SMA)
Fri 02:30:00 PM 32.8825 -96.2547 82° East 210 242 8,800 519 Climbing FAA TRACON SMA TRACON (SMA)
Fri 02:30:40 PM 32.8881 -96.2072 82° East 208 239 9,200 525 Climbing FAA TRACON SMA TRACON (SMA)
Fri 02:31:20 PM 32.8931 -96.1656 80° East 207 238 9,500 462 Climbing FAA TRACON SMA TRACON (SMA)
Fri 02:31:58 PM 32.8997 -96.1192 81° East 206 237 9,800 468 Climbing FAA TRACON SMA TRACON (SMA)
Fri 02:32:37 PM 32.9056 -96.0769 84° East 209 241 10,100 439 Climbing FAA TRACON SMA TRACON (SMA)
Fri 02:33:20 PM 32.9097 -96.0283 80° East 214 246 10,400 434 Climbing FAA TRACON SMA TRACON (SMA)
Fri 02:34:00 PM 32.9167 -95.9792 82° East 218 251 10,700 450 Climbing FAA TRACON SMA TRACON (SMA)
Fri 02:34:40 PM 32.9228 -95.9289 82° East 223 257 11,000 450 Climbing FAA TRACON SMA TRACON (SMA)
Fri 02:35:20 PM 32.9278 -95.8836 83° East 225 259 11,300 525 Climbing FAA TRACON SMA TRACON (SMA)
Fri 02:36:00 PM 32.9331 -95.8325 92° East 225 259 11,700 585 Climbing FAA TRACON SMA TRACON (SMA)
Fri 02:36:42 PM 32.9314 -95.7822 82° East 221 254 12,100 471 Climbing Fort Worth Center
Fri 02:37:42 PM 32.9389 -95.7153 82° East 221 254 12,500 450 Climbing Fort Worth Center
Fri 02:38:42 PM 32.9481 -95.6361 83° East 221 254 13,000 500 Climbing Fort Worth Center
Fri 02:39:42 PM 32.9556 -95.5592 82° East 221 254 13,500 450 Climbing Fort Worth Center
Fri 02:40:42 PM 32.9647 -95.4847 82° East 226 260 13,900 250 Climbing Fort Worth Center
Fri 02:41:42 PM 32.9739 -95.4053 83° East 231 266 14,000 50 Climbing Fort Worth Center
Fri 02:42:42 PM 32.9811 -95.3333 86° East 236 272 14,000  Level Fort Worth Center
Fri 02:43:42 PM 32.9861 -95.2489 81° East 246 283 14,000  Level Fort Worth Center
Fri 02:44:42 PM 32.9969 -95.1644 86° East 252 290 14,000 200 Level Fort Worth Center
Fri 02:45:42 PM 33.0017 -95.0825 81° East 252 290 14,400 450 Climbing Fort Worth Center
Fri 02:46:42 PM 33.0128 -95.0006 84° East 252 290 14,900 450 Climbing Fort Worth Center
Fri 02:47:42 PM 33.0197 -94.9258 84° East 247 284 15,300 450 Climbing Fort Worth Center
Fri 02:48:42 PM 33.0264 -94.8464 81° East 242 278 15,800 450 Climbing Fort Worth Center
Fri 02:49:42 PM 33.0372 -94.7669 82° East 237 273 16,200 450 Climbing Fort Worth Center
Fri 02:50:42 PM 33.0461 -94.6897 83° East 237 273 16,700 400 Climbing Fort Worth Center
Fri 02:51:42 PM 33.0547 -94.6053 83° East 237 273 17,000 -50 Climbing Fort Worth Center
Fri 02:52:42 PM 33.0631 -94.5208 84° East 248 285 16,600 -500 Descending Fort Worth Center
Fri 02:53:42 PM 33.0714 -94.4289 84° East 261 300 16,000 -600 Descending Fort Worth Center
Fri 02:54:42 PM 33.0797 -94.3367 83° East 271 312 15,400 -550 Descending Fort Worth Center
Fri 02:55:42 PM 33.0897 -94.2422 83° East 277 319 14,900 -250 Descending Fort Worth Center
Fri 02:56:42 PM 33.0981 -94.1553 84° East 272 313 14,900  Level Fort Worth Center
Fri 02:57:42 PM 33.1061 -94.0681 83° East 267 307 14,900 50 Level Fort Worth Center
Fri 02:58:42 PM 33.1144 -93.9833 84° East 262 302 15,000  Climbing Fort Worth Center
Fri 02:59:42 PM 33.1225 -93.8964 84° East 262 302 14,900 -50 Descending Fort Worth Center
Fri 03:00:42 PM 33.1303 -93.8092 84° East 257 296 14,900  Level Fort Worth Center
Fri 03:01:42 PM 33.1383 -93.7219 83° East 257 296 14,900 -450 Level Fort Worth Center
Fri 03:02:42 PM 33.1481 -93.6322 83° East 257 296 14,000 -950 Descending Fort Worth Center
Fri 03:03:42 PM 33.1578 -93.5378 84° East 269 310 13,000 -1,050 Descending Fort Worth Center
Fri 03:04:42 PM 33.1653 -93.4456 82° East 275 316 11,900 -1,200 Descending Fort Worth Center
Fri 03:05:42 PM 33.1750 -93.3606 82° East 263 303 10,600 -1,300 Descending Fort Worth Center

Login

Don't have an account? Register now (free) for customized features, flight alerts, and more!